sensor_id;sensor_type;location;lat;lon;timestamp;P1;durP1;ratioP1;P2;durP2;ratioP2
80211;SDS011;69530;37.974;23.708;2023-05-07T00:00:16;7.10;;;3.72;;
80211;SDS011;69530;37.974;23.708;2023-05-07T00:02:44;5.18;;;3.85;;
80211;SDS011;69530;37.974;23.708;2023-05-07T00:05:10;5.47;;;3.17;;
80211;SDS011;69530;37.974;23.708;2023-05-07T00:07:36;4.63;;;3.15;;
80211;SDS011;69530;37.974;23.708;2023-05-07T00:10:02;4.72;;;3.30;;
80211;SDS011;69530;37.974;23.708;2023-05-07T00:12:29;6.55;;;4.10;;
80211;SDS011;69530;37.974;23.708;2023-05-07T00:14:59;6.13;;;3.72;;
80211;SDS011;69530;37.974;23.708;2023-05-07T00:17:25;5.93;;;3.72;;
80211;SDS011;69530;37.974;23.708;2023-05-07T00:19:51;5.75;;;3.50;;
80211;SDS011;69530;37.974;23.708;2023-05-07T00:22:17;5.78;;;3.58;;
80211;SDS011;69530;37.974;23.708;2023-05-07T00:24:43;4.68;;;3.08;;
80211;SDS011;69530;37.974;23.708;2023-05-07T00:27:08;5.70;;;3.58;;
80211;SDS011;69530;37.974;23.708;2023-05-07T00:29:34;5.30;;;3.22;;
80211;SDS011;69530;37.974;23.708;2023-05-07T00:32:01;5.30;;;3.40;;
80211;SDS011;69530;37.974;23.708;2023-05-07T00:34:27;6.07;;;3.50;;
80211;SDS011;69530;37.974;23.708;2023-05-07T00:36:53;5.65;;;3.75;;
80211;SDS011;69530;37.974;23.708;2023-05-07T00:39:18;5.63;;;3.65;;
80211;SDS011;69530;37.974;23.708;2023-05-07T00:41:44;5.82;;;3.70;;
80211;SDS011;69530;37.974;23.708;2023-05-07T00:44:11;4.70;;;3.13;;
80211;SDS011;69530;37.974;23.708;2023-05-07T00:46:36;5.63;;;3.90;;
80211;SDS011;69530;37.974;23.708;2023-05-07T00:49:02;6.10;;;3.60;;
80211;SDS011;69530;37.974;23.708;2023-05-07T00:51:29;5.03;;;3.55;;
80211;SDS011;69530;37.974;23.708;2023-05-07T00:53:55;7.95;;;3.85;;
80211;SDS011;69530;37.974;23.708;2023-05-07T00:56:21;9.00;;;3.30;;
80211;SDS011;69530;37.974;23.708;2023-05-07T00:58:48;5.88;;;3.25;;
80211;SDS011;69530;37.974;23.708;2023-05-07T01:01:14;5.55;;;3.55;;
80211;SDS011;69530;37.974;23.708;2023-05-07T01:03:43;5.65;;;3.80;;
80211;SDS011;69530;37.974;23.708;2023-05-07T01:06:08;5.25;;;3.15;;
80211;SDS011;69530;37.974;23.708;2023-05-07T01:08:38;5.93;;;3.85;;
80211;SDS011;69530;37.974;23.708;2023-05-07T01:11:05;5.15;;;3.60;;
80211;SDS011;69530;37.974;23.708;2023-05-07T01:13:51;5.60;;;3.78;;
80211;SDS011;69530;37.974;23.708;2023-05-07T01:16:17;5.28;;;3.45;;
80211;SDS011;69530;37.974;23.708;2023-05-07T01:18:43;5.68;;;3.60;;
80211;SDS011;69530;37.974;23.708;2023-05-07T01:21:10;6.15;;;3.35;;
80211;SDS011;69530;37.974;23.708;2023-05-07T01:23:36;5.95;;;3.90;;
80211;SDS011;69530;37.974;23.708;2023-05-07T01:26:04;5.35;;;3.53;;
80211;SDS011;69530;37.974;23.708;2023-05-07T01:28:30;5.05;;;3.47;;
80211;SDS011;69530;37.974;23.708;2023-05-07T01:30:58;5.30;;;3.25;;
80211;SDS011;69530;37.974;23.708;2023-05-07T01:33:29;4.72;;;3.10;;
80211;SDS011;69530;37.974;23.708;2023-05-07T01:35:58;5.55;;;3.50;;
80211;SDS011;69530;37.974;23.708;2023-05-07T01:38:29;4.30;;;3.03;;
80211;SDS011;69530;37.974;23.708;2023-05-07T01:40:55;5.70;;;3.60;;
80211;SDS011;69530;37.974;23.708;2023-05-07T01:43:22;5.40;;;3.53;;
80211;SDS011;69530;37.974;23.708;2023-05-07T01:45:48;5.32;;;3.33;;
80211;SDS011;69530;37.974;23.708;2023-05-07T01:48:14;6.32;;;3.53;;
80211;SDS011;69530;37.974;23.708;2023-05-07T01:50:41;5.15;;;3.60;;
80211;SDS011;69530;37.974;23.708;2023-05-07T01:53:08;6.25;;;4.00;;
80211;SDS011;69530;37.974;23.708;2023-05-07T01:55:33;5.00;;;3.40;;
80211;SDS011;69530;37.974;23.708;2023-05-07T01:58:01;4.95;;;3.35;;
80211;SDS011;69530;37.974;23.708;2023-05-07T02:00:27;4.88;;;3.08;;
80211;SDS011;69530;37.974;23.708;2023-05-07T02:02:54;6.95;;;4.00;;
80211;SDS011;69530;37.974;23.708;2023-05-07T02:05:19;5.10;;;3.47;;
80211;SDS011;69530;37.974;23.708;2023-05-07T02:07:45;5.20;;;3.95;;
80211;SDS011;69530;37.974;23.708;2023-05-07T02:10:11;5.30;;;3.50;;
80211;SDS011;69530;37.974;23.708;2023-05-07T02:12:37;5.75;;;3.60;;
80211;SDS011;69530;37.974;23.708;2023-05-07T02:15:03;4.90;;;3.10;;
80211;SDS011;69530;37.974;23.708;2023-05-07T02:17:28;7.65;;;3.97;;
80211;SDS011;69530;37.974;23.708;2023-05-07T02:19:56;6.32;;;3.53;;
80211;SDS011;69530;37.974;23.708;2023-05-07T02:22:22;5.55;;;3.90;;
80211;SDS011;69530;37.974;23.708;2023-05-07T02:24:48;5.75;;;3.30;;
80211;SDS011;69530;37.974;23.708;2023-05-07T02:27:14;5.10;;;3.50;;
80211;SDS011;69530;37.974;23.708;2023-05-07T02:29:39;5.80;;;3.70;;
80211;SDS011;69530;37.974;23.708;2023-05-07T02:32:05;7.18;;;3.33;;
80211;SDS011;69530;37.974;23.708;2023-05-07T02:34:31;6.07;;;3.50;;
80211;SDS011;69530;37.974;23.708;2023-05-07T02:36:57;5.47;;;3.55;;
80211;SDS011;69530;37.974;23.708;2023-05-07T02:39:22;6.22;;;3.65;;
80211;SDS011;69530;37.974;23.708;2023-05-07T02:41:48;4.70;;;3.10;;
80211;SDS011;69530;37.974;23.708;2023-05-07T02:44:14;6.78;;;3.85;;
80211;SDS011;69530;37.974;23.708;2023-05-07T02:46:39;5.75;;;3.42;;
80211;SDS011;69530;37.974;23.708;2023-05-07T02:49:05;4.50;;;3.20;;
80211;SDS011;69530;37.974;23.708;2023-05-07T02:51:31;5.38;;;3.40;;
80211;SDS011;69530;37.974;23.708;2023-05-07T02:53:57;6.85;;;3.90;;
80211;SDS011;69530;37.974;23.708;2023-05-07T02:56:22;4.60;;;3.35;;
80211;SDS011;69530;37.974;23.708;2023-05-07T02:58:48;5.85;;;3.90;;
80211;SDS011;69530;37.974;23.708;2023-05-07T03:01:13;5.35;;;3.35;;
80211;SDS011;69530;37.974;23.708;2023-05-07T03:03:39;6.03;;;3.35;;
80211;SDS011;69530;37.974;23.708;2023-05-07T03:06:05;5.15;;;3.00;;
80211;SDS011;69530;37.974;23.708;2023-05-07T03:08:32;5.68;;;3.45;;
80211;SDS011;69530;37.974;23.708;2023-05-07T03:10:58;8.70;;;3.75;;
80211;SDS011;69530;37.974;23.708;2023-05-07T03:13:23;5.55;;;3.67;;
80211;SDS011;69530;37.974;23.708;2023-05-07T03:15:49;4.75;;;3.20;;
80211;SDS011;69530;37.974;23.708;2023-05-07T03:18:15;5.72;;;3.22;;
80211;SDS011;69530;37.974;23.708;2023-05-07T03:20:40;5.57;;;3.53;;
80211;SDS011;69530;37.974;23.708;2023-05-07T03:23:06;6.70;;;4.10;;
80211;SDS011;69530;37.974;23.708;2023-05-07T03:25:32;5.75;;;3.05;;
80211;SDS011;69530;37.974;23.708;2023-05-07T03:27:58;5.88;;;3.40;;
80211;SDS011;69530;37.974;23.708;2023-05-07T03:30:24;5.00;;;3.50;;
80211;SDS011;69530;37.974;23.708;2023-05-07T03:32:50;4.25;;;2.88;;
80211;SDS011;69530;37.974;23.708;2023-05-07T03:35:15;5.07;;;3.30;;
80211;SDS011;69530;37.974;23.708;2023-05-07T03:37:41;5.22;;;3.28;;
80211;SDS011;69530;37.974;23.708;2023-05-07T03:40:07;7.32;;;4.03;;
80211;SDS011;69530;37.974;23.708;2023-05-07T03:42:35;5.07;;;3.38;;
80211;SDS011;69530;37.974;23.708;2023-05-07T03:45:01;4.97;;;3.25;;
80211;SDS011;69530;37.974;23.708;2023-05-07T03:47:26;5.65;;;3.67;;
80211;SDS011;69530;37.974;23.708;2023-05-07T03:49:52;5.30;;;2.90;;
80211;SDS011;69530;37.974;23.708;2023-05-07T03:52:19;5.47;;;3.42;;
80211;SDS011;69530;37.974;23.708;2023-05-07T03:54:49;5.65;;;3.30;;
80211;SDS011;69530;37.974;23.708;2023-05-07T03:57:14;5.53;;;3.35;;
80211;SDS011;69530;37.974;23.708;2023-05-07T03:59:40;6.03;;;3.78;;
80211;SDS011;69530;37.974;23.708;2023-05-07T04:02:06;5.63;;;3.85;;
80211;SDS011;69530;37.974;23.708;2023-05-07T04:04:31;5.60;;;3.40;;
80211;SDS011;69530;37.974;23.708;2023-05-07T04:06:57;5.07;;;3.10;;
80211;SDS011;69530;37.974;23.708;2023-05-07T04:09:24;5.60;;;3.58;;
80211;SDS011;69530;37.974;23.708;2023-05-07T04:11:50;5.25;;;3.13;;
80211;SDS011;69530;37.974;23.708;2023-05-07T04:14:16;5.78;;;3.35;;
80211;SDS011;69530;37.974;23.708;2023-05-07T04:16:42;5.18;;;3.20;;
80211;SDS011;69530;37.974;23.708;2023-05-07T04:19:07;6.03;;;3.28;;
80211;SDS011;69530;37.974;23.708;2023-05-07T04:21:33;5.53;;;3.22;;
80211;SDS011;69530;37.974;23.708;2023-05-07T04:23:59;6.88;;;3.50;;
80211;SDS011;69530;37.974;23.708;2023-05-07T04:26:24;6.40;;;3.15;;
80211;SDS011;69530;37.974;23.708;2023-05-07T04:28:50;4.60;;;3.20;;
80211;SDS011;69530;37.974;23.708;2023-05-07T04:31:16;5.97;;;3.28;;
80211;SDS011;69530;37.974;23.708;2023-05-07T04:33:41;4.28;;;2.83;;
80211;SDS011;69530;37.974;23.708;2023-05-07T04:36:07;6.53;;;3.20;;
80211;SDS011;69530;37.974;23.708;2023-05-07T04:38:33;4.38;;;3.00;;
80211;SDS011;69530;37.974;23.708;2023-05-07T04:41:05;5.43;;;3.17;;
80211;SDS011;69530;37.974;23.708;2023-05-07T04:45:57;4.60;;;2.58;;
80211;SDS011;69530;37.974;23.708;2023-05-07T04:48:23;5.50;;;2.95;;
80211;SDS011;69530;37.974;23.708;2023-05-07T04:50:51;4.40;;;2.75;;
80211;SDS011;69530;37.974;23.708;2023-05-07T04:53:17;4.80;;;2.80;;
80211;SDS011;69530;37.974;23.708;2023-05-07T04:55:43;4.03;;;2.97;;
80211;SDS011;69530;37.974;23.708;2023-05-07T04:58:10;4.80;;;3.22;;
80211;SDS011;69530;37.974;23.708;2023-05-07T05:00:36;5.28;;;2.83;;
80211;SDS011;69530;37.974;23.708;2023-05-07T05:03:03;4.13;;;2.75;;
80211;SDS011;69530;37.974;23.708;2023-05-07T05:05:30;4.97;;;2.78;;
80211;SDS011;69530;37.974;23.708;2023-05-07T05:07:55;5.53;;;3.08;;
80211;SDS011;69530;37.974;23.708;2023-05-07T05:10:21;3.55;;;2.53;;
80211;SDS011;69530;37.974;23.708;2023-05-07T05:12:47;3.97;;;2.40;;
80211;SDS011;69530;37.974;23.708;2023-05-07T05:15:13;3.60;;;2.78;;
80211;SDS011;69530;37.974;23.708;2023-05-07T05:17:39;5.28;;;2.90;;
80211;SDS011;69530;37.974;23.708;2023-05-07T05:20:04;5.78;;;3.03;;
80211;SDS011;69530;37.974;23.708;2023-05-07T05:22:31;4.22;;;2.65;;
80211;SDS011;69530;37.974;23.708;2023-05-07T05:24:57;5.18;;;2.60;;
80211;SDS011;69530;37.974;23.708;2023-05-07T05:27:23;6.28;;;2.83;;
80211;SDS011;69530;37.974;23.708;2023-05-07T05:29:49;3.92;;;2.50;;
80211;SDS011;69530;37.974;23.708;2023-05-07T05:32:14;4.25;;;2.53;;
80211;SDS011;69530;37.974;23.708;2023-05-07T05:34:40;4.95;;;2.58;;
80211;SDS011;69530;37.974;23.708;2023-05-07T05:37:06;4.70;;;2.55;;
80211;SDS011;69530;37.974;23.708;2023-05-07T05:39:31;5.25;;;3.15;;
80211;SDS011;69530;37.974;23.708;2023-05-07T05:41:57;4.95;;;2.60;;
80211;SDS011;69530;37.974;23.708;2023-05-07T05:44:23;3.85;;;2.38;;
80211;SDS011;69530;37.974;23.708;2023-05-07T05:46:49;3.00;;;2.40;;
80211;SDS011;69530;37.974;23.708;2023-05-07T05:49:15;4.78;;;2.92;;
80211;SDS011;69530;37.974;23.708;2023-05-07T05:51:40;4.05;;;2.42;;
80211;SDS011;69530;37.974;23.708;2023-05-07T05:54:06;5.00;;;2.80;;
80211;SDS011;69530;37.974;23.708;2023-05-07T05:56:32;3.85;;;2.53;;
80211;SDS011;69530;37.974;23.708;2023-05-07T05:58:58;3.33;;;2.40;;
80211;SDS011;69530;37.974;23.708;2023-05-07T06:01:24;4.03;;;2.50;;
80211;SDS011;69530;37.974;23.708;2023-05-07T06:03:51;3.67;;;2.53;;
80211;SDS011;69530;37.974;23.708;2023-05-07T06:06:17;3.60;;;2.30;;
80211;SDS011;69530;37.974;23.708;2023-05-07T06:08:43;3.63;;;2.30;;
80211;SDS011;69530;37.974;23.708;2023-05-07T06:11:08;4.15;;;2.40;;
80211;SDS011;69530;37.974;23.708;2023-05-07T06:13:34;5.10;;;2.55;;
80211;SDS011;69530;37.974;23.708;2023-05-07T06:16:00;4.25;;;2.90;;
80211;SDS011;69530;37.974;23.708;2023-05-07T06:18:26;4.53;;;2.50;;
80211;SDS011;69530;37.974;23.708;2023-05-07T06:20:51;5.30;;;2.92;;
80211;SDS011;69530;37.974;23.708;2023-05-07T06:23:18;3.85;;;2.42;;
80211;SDS011;69530;37.974;23.708;2023-05-07T06:25:50;3.40;;;2.38;;
80211;SDS011;69530;37.974;23.708;2023-05-07T06:28:15;4.15;;;2.30;;
80211;SDS011;69530;37.974;23.708;2023-05-07T06:30:41;3.65;;;2.13;;
80211;SDS011;69530;37.974;23.708;2023-05-07T06:33:07;2.97;;;2.00;;
80211;SDS011;69530;37.974;23.708;2023-05-07T06:35:33;3.80;;;2.38;;
80211;SDS011;69530;37.974;23.708;2023-05-07T06:37:59;3.55;;;2.28;;
80211;SDS011;69530;37.974;23.708;2023-05-07T06:40:25;4.47;;;2.45;;
80211;SDS011;69530;37.974;23.708;2023-05-07T06:42:51;4.63;;;2.50;;
80211;SDS011;69530;37.974;23.708;2023-05-07T06:45:16;4.15;;;2.40;;
80211;SDS011;69530;37.974;23.708;2023-05-07T06:47:42;3.35;;;2.15;;
80211;SDS011;69530;37.974;23.708;2023-05-07T06:50:08;3.65;;;2.10;;
80211;SDS011;69530;37.974;23.708;2023-05-07T06:52:34;2.88;;;1.90;;
80211;SDS011;69530;37.974;23.708;2023-05-07T06:55:00;3.67;;;2.63;;
80211;SDS011;69530;37.974;23.708;2023-05-07T06:57:26;5.13;;;2.53;;
80211;SDS011;69530;37.974;23.708;2023-05-07T06:59:52;3.67;;;2.13;;
80211;SDS011;69530;37.974;23.708;2023-05-07T07:02:17;3.65;;;2.10;;
80211;SDS011;69530;37.974;23.708;2023-05-07T07:04:43;4.38;;;1.80;;
80211;SDS011;69530;37.974;23.708;2023-05-07T07:07:10;3.47;;;1.92;;
80211;SDS011;69530;37.974;23.708;2023-05-07T07:09:35;3.15;;;2.40;;
80211;SDS011;69530;37.974;23.708;2023-05-07T07:12:01;3.80;;;2.35;;
80211;SDS011;69530;37.974;23.708;2023-05-07T07:14:27;3.85;;;2.08;;
80211;SDS011;69530;37.974;23.708;2023-05-07T07:16:53;4.15;;;2.55;;
80211;SDS011;69530;37.974;23.708;2023-05-07T07:19:18;5.20;;;2.30;;
80211;SDS011;69530;37.974;23.708;2023-05-07T07:21:45;3.05;;;1.90;;
80211;SDS011;69530;37.974;23.708;2023-05-07T07:24:11;3.40;;;2.35;;
80211;SDS011;69530;37.974;23.708;2023-05-07T07:26:37;3.40;;;2.10;;
80211;SDS011;69530;37.974;23.708;2023-05-07T07:29:04;3.75;;;2.10;;
80211;SDS011;69530;37.974;23.708;2023-05-07T07:31:31;3.38;;;2.33;;
80211;SDS011;69530;37.974;23.708;2023-05-07T07:33:57;5.90;;;2.33;;
80211;SDS011;69530;37.974;23.708;2023-05-07T07:36:23;6.32;;;2.83;;
80211;SDS011;69530;37.974;23.708;2023-05-07T07:38:48;7.05;;;2.30;;
80211;SDS011;69530;37.974;23.708;2023-05-07T07:41:14;5.32;;;2.60;;
80211;SDS011;69530;37.974;23.708;2023-05-07T07:43:40;3.58;;;2.05;;
80211;SDS011;69530;37.974;23.708;2023-05-07T07:46:05;4.40;;;2.00;;
80211;SDS011;69530;37.974;23.708;2023-05-07T07:48:31;3.60;;;1.95;;
80211;SDS011;69530;37.974;23.708;2023-05-07T07:50:57;4.68;;;2.50;;
80211;SDS011;69530;37.974;23.708;2023-05-07T07:53:23;4.88;;;2.30;;
80211;SDS011;69530;37.974;23.708;2023-05-07T07:55:48;4.25;;;2.17;;
80211;SDS011;69530;37.974;23.708;2023-05-07T07:58:14;4.10;;;1.88;;
80211;SDS011;69530;37.974;23.708;2023-05-07T08:00:40;3.58;;;2.30;;
80211;SDS011;69530;37.974;23.708;2023-05-07T08:03:05;3.15;;;2.08;;
80211;SDS011;69530;37.974;23.708;2023-05-07T08:05:35;4.45;;;2.20;;
80211;SDS011;69530;37.974;23.708;2023-05-07T08:08:01;4.32;;;2.10;;
80211;SDS011;69530;37.974;23.708;2023-05-07T08:10:26;5.85;;;2.40;;
80211;SDS011;69530;37.974;23.708;2023-05-07T08:12:52;4.72;;;2.00;;
80211;SDS011;69530;37.974;23.708;2023-05-07T08:15:18;3.63;;;2.10;;
80211;SDS011;69530;37.974;23.708;2023-05-07T08:17:44;2.95;;;2.10;;
80211;SDS011;69530;37.974;23.708;2023-05-07T08:20:10;4.75;;;2.08;;
80211;SDS011;69530;37.974;23.708;2023-05-07T08:22:36;4.07;;;2.08;;
80211;SDS011;69530;37.974;23.708;2023-05-07T08:25:02;10.20;;;2.67;;
80211;SDS011;69530;37.974;23.708;2023-05-07T08:27:28;4.70;;;2.60;;
80211;SDS011;69530;37.974;23.708;2023-05-07T08:29:54;3.58;;;2.15;;
80211;SDS011;69530;37.974;23.708;2023-05-07T08:32:20;3.17;;;2.03;;
80211;SDS011;69530;37.974;23.708;2023-05-07T08:34:46;3.72;;;2.20;;
80211;SDS011;69530;37.974;23.708;2023-05-07T08:37:12;4.30;;;2.00;;
80211;SDS011;69530;37.974;23.708;2023-05-07T08:39:38;5.32;;;2.35;;
80211;SDS011;69530;37.974;23.708;2023-05-07T08:42:04;3.63;;;2.40;;
80211;SDS011;69530;37.974;23.708;2023-05-07T08:44:33;4.95;;;2.25;;
80211;SDS011;69530;37.974;23.708;2023-05-07T08:47:00;4.13;;;2.05;;
80211;SDS011;69530;37.974;23.708;2023-05-07T08:49:29;3.80;;;2.50;;
80211;SDS011;69530;37.974;23.708;2023-05-07T08:51:55;4.18;;;2.70;;
80211;SDS011;69530;37.974;23.708;2023-05-07T08:54:21;4.60;;;2.55;;
80211;SDS011;69530;37.974;23.708;2023-05-07T08:56:47;3.95;;;2.47;;
80211;SDS011;69530;37.974;23.708;2023-05-07T08:59:13;4.13;;;2.15;;
80211;SDS011;69530;37.974;23.708;2023-05-07T09:01:39;4.57;;;1.85;;
80211;SDS011;69530;37.974;23.708;2023-05-07T09:04:05;4.32;;;2.13;;
80211;SDS011;69530;37.974;23.708;2023-05-07T09:06:32;3.50;;;2.08;;
80211;SDS011;69530;37.974;23.708;2023-05-07T09:08:58;4.70;;;2.33;;
80211;SDS011;69530;37.974;23.708;2023-05-07T09:11:26;4.55;;;2.10;;
80211;SDS011;69530;37.974;23.708;2023-05-07T09:13:55;3.60;;;2.08;;
80211;SDS011;69530;37.974;23.708;2023-05-07T09:16:27;4.38;;;2.45;;
80211;SDS011;69530;37.974;23.708;2023-05-07T09:18:55;4.63;;;2.40;;
80211;SDS011;69530;37.974;23.708;2023-05-07T09:21:23;3.22;;;2.20;;
80211;SDS011;69530;37.974;23.708;2023-05-07T09:23:51;2.70;;;1.90;;
80211;SDS011;69530;37.974;23.708;2023-05-07T09:26:18;4.72;;;2.10;;
80211;SDS011;69530;37.974;23.708;2023-05-07T09:28:46;6.95;;;2.40;;
80211;SDS011;69530;37.974;23.708;2023-05-07T09:31:12;3.55;;;2.08;;
80211;SDS011;69530;37.974;23.708;2023-05-07T09:33:38;5.57;;;2.50;;
80211;SDS011;69530;37.974;23.708;2023-05-07T09:36:05;4.60;;;2.33;;
80211;SDS011;69530;37.974;23.708;2023-05-07T09:38:32;4.55;;;2.17;;
80211;SDS011;69530;37.974;23.708;2023-05-07T09:41:09;4.30;;;2.65;;
80211;SDS011;69530;37.974;23.708;2023-05-07T09:43:36;4.10;;;2.17;;
80211;SDS011;69530;37.974;23.708;2023-05-07T09:46:03;5.38;;;2.30;;
80211;SDS011;69530;37.974;23.708;2023-05-07T09:48:39;3.60;;;2.22;;
80211;SDS011;69530;37.974;23.708;2023-05-07T09:53:47;4.95;;;2.35;;
80211;SDS011;69530;37.974;23.708;2023-05-07T09:56:15;3.88;;;2.08;;
80211;SDS011;69530;37.974;23.708;2023-05-07T09:58:43;5.20;;;2.00;;
80211;SDS011;69530;37.974;23.708;2023-05-07T10:01:10;5.20;;;2.35;;
80211;SDS011;69530;37.974;23.708;2023-05-07T10:03:37;4.18;;;2.05;;
80211;SDS011;69530;37.974;23.708;2023-05-07T10:06:06;4.30;;;2.35;;
80211;SDS011;69530;37.974;23.708;2023-05-07T10:08:35;4.80;;;2.35;;
80211;SDS011;69530;37.974;23.708;2023-05-07T10:11:03;4.22;;;1.92;;
80211;SDS011;69530;37.974;23.708;2023-05-07T10:13:29;3.90;;;2.40;;
80211;SDS011;69530;37.974;23.708;2023-05-07T10:15:56;4.35;;;2.15;;
80211;SDS011;69530;37.974;23.708;2023-05-07T10:18:22;4.35;;;2.10;;
80211;SDS011;69530;37.974;23.708;2023-05-07T10:20:54;4.95;;;2.10;;
80211;SDS011;69530;37.974;23.708;2023-05-07T10:23:24;6.18;;;2.33;;
80211;SDS011;69530;37.974;23.708;2023-05-07T10:25:52;4.50;;;2.17;;
80211;SDS011;69530;37.974;23.708;2023-05-07T10:28:19;3.92;;;2.13;;
80211;SDS011;69530;37.974;23.708;2023-05-07T10:33:54;4.57;;;2.75;;
80211;SDS011;69530;37.974;23.708;2023-05-07T10:36:21;4.75;;;2.72;;
80211;SDS011;69530;37.974;23.708;2023-05-07T10:38:48;5.15;;;2.30;;
80211;SDS011;69530;37.974;23.708;2023-05-07T10:41:14;3.70;;;2.20;;
80211;SDS011;69530;37.974;23.708;2023-05-07T10:43:43;7.57;;;2.45;;
80211;SDS011;69530;37.974;23.708;2023-05-07T10:51:31;3.88;;;2.42;;
80211;SDS011;69530;37.974;23.708;2023-05-07T10:56:44;6.13;;;2.40;;
80211;SDS011;69530;37.974;23.708;2023-05-07T11:04:18;4.15;;;2.25;;
80211;SDS011;69530;37.974;23.708;2023-05-07T11:15:05;3.30;;;2.15;;
80211;SDS011;69530;37.974;23.708;2023-05-07T11:17:32;4.47;;;2.33;;
80211;SDS011;69530;37.974;23.708;2023-05-07T11:20:00;4.28;;;2.22;;
80211;SDS011;69530;37.974;23.708;2023-05-07T11:27:26;4.55;;;2.53;;
80211;SDS011;69530;37.974;23.708;2023-05-07T11:29:52;4.38;;;2.38;;
80211;SDS011;69530;37.974;23.708;2023-05-07T11:32:24;3.35;;;2.20;;
80211;SDS011;69530;37.974;23.708;2023-05-07T11:34:51;3.75;;;2.40;;
80211;SDS011;69530;37.974;23.708;2023-05-07T11:37:19;3.95;;;2.58;;
80211;SDS011;69530;37.974;23.708;2023-05-07T11:39:45;3.47;;;2.40;;
80211;SDS011;69530;37.974;23.708;2023-05-07T11:42:30;4.03;;;2.40;;
80211;SDS011;69530;37.974;23.708;2023-05-07T11:44:58;4.75;;;2.47;;
80211;SDS011;69530;37.974;23.708;2023-05-07T11:47:24;3.97;;;2.58;;
80211;SDS011;69530;37.974;23.708;2023-05-07T11:49:53;5.55;;;2.45;;
80211;SDS011;69530;37.974;23.708;2023-05-07T11:52:20;4.50;;;2.45;;
80211;SDS011;69530;37.974;23.708;2023-05-07T11:57:20;7.20;;;2.67;;
80211;SDS011;69530;37.974;23.708;2023-05-07T11:59:47;4.10;;;2.78;;
80211;SDS011;69530;37.974;23.708;2023-05-07T12:02:17;3.80;;;2.13;;
80211;SDS011;69530;37.974;23.708;2023-05-07T12:04:43;3.70;;;2.45;;
80211;SDS011;69530;37.974;23.708;2023-05-07T12:07:12;4.22;;;2.60;;
80211;SDS011;69530;37.974;23.708;2023-05-07T12:09:42;4.93;;;2.38;;
80211;SDS011;69530;37.974;23.708;2023-05-07T12:12:10;4.38;;;2.72;;
80211;SDS011;69530;37.974;23.708;2023-05-07T12:14:43;6.25;;;2.55;;
80211;SDS011;69530;37.974;23.708;2023-05-07T12:19:35;4.40;;;2.28;;
80211;SDS011;69530;37.974;23.708;2023-05-07T12:22:02;5.38;;;2.47;;
80211;SDS011;69530;37.974;23.708;2023-05-07T12:24:28;3.92;;;2.63;;
80211;SDS011;69530;37.974;23.708;2023-05-07T12:27:06;5.93;;;2.55;;
80211;SDS011;69530;37.974;23.708;2023-05-07T12:29:32;5.07;;;2.78;;
80211;SDS011;69530;37.974;23.708;2023-05-07T12:31:57;4.32;;;2.58;;
80211;SDS011;69530;37.974;23.708;2023-05-07T12:34:23;4.57;;;2.30;;
80211;SDS011;69530;37.974;23.708;2023-05-07T12:36:49;5.22;;;2.28;;
80211;SDS011;69530;37.974;23.708;2023-05-07T12:39:15;4.80;;;2.67;;
80211;SDS011;69530;37.974;23.708;2023-05-07T12:41:59;4.88;;;2.95;;
80211;SDS011;69530;37.974;23.708;2023-05-07T12:44:25;4.50;;;2.75;;
80211;SDS011;69530;37.974;23.708;2023-05-07T12:46:55;4.97;;;2.55;;
80211;SDS011;69530;37.974;23.708;2023-05-07T12:49:20;3.55;;;2.38;;
80211;SDS011;69530;37.974;23.708;2023-05-07T12:51:47;4.30;;;2.25;;
80211;SDS011;69530;37.974;23.708;2023-05-07T12:54:26;4.38;;;2.50;;
80211;SDS011;69530;37.974;23.708;2023-05-07T12:57:04;4.65;;;2.85;;
80211;SDS011;69530;37.974;23.708;2023-05-07T13:01:58;4.85;;;2.50;;
80211;SDS011;69530;37.974;23.708;2023-05-07T13:04:24;3.28;;;2.55;;
80211;SDS011;69530;37.974;23.708;2023-05-07T13:06:50;3.60;;;2.25;;
80211;SDS011;69530;37.974;23.708;2023-05-07T13:09:15;5.13;;;2.78;;
80211;SDS011;69530;37.974;23.708;2023-05-07T13:11:41;4.88;;;2.40;;
80211;SDS011;69530;37.974;23.708;2023-05-07T13:14:07;3.88;;;2.72;;
80211;SDS011;69530;37.974;23.708;2023-05-07T13:16:33;5.80;;;2.70;;
80211;SDS011;69530;37.974;23.708;2023-05-07T13:18:58;4.80;;;2.63;;
80211;SDS011;69530;37.974;23.708;2023-05-07T13:21:24;5.30;;;3.20;;
80211;SDS011;69530;37.974;23.708;2023-05-07T13:23:51;4.00;;;2.53;;
80211;SDS011;69530;37.974;23.708;2023-05-07T13:26:17;5.93;;;3.28;;
80211;SDS011;69530;37.974;23.708;2023-05-07T13:28:43;4.10;;;2.75;;
80211;SDS011;69530;37.974;23.708;2023-05-07T13:31:09;3.63;;;2.40;;
80211;SDS011;69530;37.974;23.708;2023-05-07T13:33:35;4.78;;;2.63;;
80211;SDS011;69530;37.974;23.708;2023-05-07T13:36:01;4.95;;;2.60;;
80211;SDS011;69530;37.974;23.708;2023-05-07T13:38:29;4.78;;;2.70;;
80211;SDS011;69530;37.974;23.708;2023-05-07T13:40:55;4.32;;;2.58;;
80211;SDS011;69530;37.974;23.708;2023-05-07T13:43:21;4.80;;;2.70;;
80211;SDS011;69530;37.974;23.708;2023-05-07T13:45:46;3.42;;;2.53;;
80211;SDS011;69530;37.974;23.708;2023-05-07T13:48:12;4.50;;;2.80;;
80211;SDS011;69530;37.974;23.708;2023-05-07T13:50:38;4.05;;;2.53;;
80211;SDS011;69530;37.974;23.708;2023-05-07T13:53:03;4.07;;;2.80;;
80211;SDS011;69530;37.974;23.708;2023-05-07T13:55:30;4.90;;;2.42;;
80211;SDS011;69530;37.974;23.708;2023-05-07T13:57:56;5.30;;;2.90;;
80211;SDS011;69530;37.974;23.708;2023-05-07T14:00:23;4.25;;;2.80;;
80211;SDS011;69530;37.974;23.708;2023-05-07T14:02:52;4.25;;;2.67;;
80211;SDS011;69530;37.974;23.708;2023-05-07T14:05:19;3.90;;;2.20;;
80211;SDS011;69530;37.974;23.708;2023-05-07T14:07:44;5.88;;;2.60;;
80211;SDS011;69530;37.974;23.708;2023-05-07T14:10:10;4.65;;;2.83;;
80211;SDS011;69530;37.974;23.708;2023-05-07T14:12:36;4.07;;;2.58;;
80211;SDS011;69530;37.974;23.708;2023-05-07T14:15:02;4.32;;;2.45;;
80211;SDS011;69530;37.974;23.708;2023-05-07T14:17:28;5.20;;;2.70;;
80211;SDS011;69530;37.974;23.708;2023-05-07T14:19:54;4.15;;;2.50;;
80211;SDS011;69530;37.974;23.708;2023-05-07T14:22:20;5.38;;;2.80;;
80211;SDS011;69530;37.974;23.708;2023-05-07T14:24:47;4.43;;;2.30;;
80211;SDS011;69530;37.974;23.708;2023-05-07T14:27:13;5.13;;;3.13;;
80211;SDS011;69530;37.974;23.708;2023-05-07T14:29:39;4.20;;;2.30;;
80211;SDS011;69530;37.974;23.708;2023-05-07T14:32:05;4.35;;;2.58;;
80211;SDS011;69530;37.974;23.708;2023-05-07T14:34:31;3.97;;;2.70;;
80211;SDS011;69530;37.974;23.708;2023-05-07T14:36:57;5.18;;;2.42;;
80211;SDS011;69530;37.974;23.708;2023-05-07T14:39:24;4.22;;;2.63;;
80211;SDS011;69530;37.974;23.708;2023-05-07T14:41:50;4.20;;;2.40;;
80211;SDS011;69530;37.974;23.708;2023-05-07T14:44:16;4.88;;;2.60;;
80211;SDS011;69530;37.974;23.708;2023-05-07T14:46:42;4.53;;;2.63;;
80211;SDS011;69530;37.974;23.708;2023-05-07T14:49:08;4.40;;;2.53;;
80211;SDS011;69530;37.974;23.708;2023-05-07T14:51:42;4.07;;;2.53;;
80211;SDS011;69530;37.974;23.708;2023-05-07T14:54:09;4.38;;;2.65;;
80211;SDS011;69530;37.974;23.708;2023-05-07T14:56:35;4.45;;;2.47;;
80211;SDS011;69530;37.974;23.708;2023-05-07T14:59:01;3.72;;;2.42;;
80211;SDS011;69530;37.974;23.708;2023-05-07T15:01:28;4.10;;;2.67;;
80211;SDS011;69530;37.974;23.708;2023-05-07T15:03:54;4.47;;;2.45;;
80211;SDS011;69530;37.974;23.708;2023-05-07T15:06:20;4.50;;;2.60;;
80211;SDS011;69530;37.974;23.708;2023-05-07T15:08:46;3.20;;;2.40;;
80211;SDS011;69530;37.974;23.708;2023-05-07T15:11:13;3.80;;;2.42;;